CheckWX is a tool to help pilots better visualize weather data.  It is not intended as a substitute for an official pre-flight weather briefing.

15:14:58 UTC

KPSF METAR
Pittsfield Municipal Airport
Pittsfield, Massachusetts, USA
Current

13 mins ago

KPSF 261502Z AUTO 28014KT 10SM SCT026 BKN033 24/17 A2991 RMK AO2 T02390167
Observed
May-26 @ 15:02 UTC
Wind
  • 280° at 14 KTS
Visibility
10 SM
Flight Rules
VFR
Cloud Levels
  • Scattered at 2,600' AGL
  • Broken at 3,300' AGL
Temperature
24°C / 75°F
Dewpoint
17°C / 63°F
Humidity
65%
Altimeter
29.91" Hg
Pressure
1012.92 hPa
Previous

21 mins ago

KPSF 261454Z AUTO 28009KT 10SM BKN024 BKN033 23/17 A2991 RMK AO2 SLP108 T02280167 50002
Observed
May-26 @ 14:54 UTC
Wind
  • 280° at 9 KTS
Visibility
10 SM
Flight Rules
MVFR
Cloud Levels
  • Broken at 2,400' AGL
  • Broken at 3,300' AGL
Temperature
23°C / 73°F
Dewpoint
17°C / 63°F
Humidity
69%
Altimeter
29.91" Hg
Pressure
1012.92 hPa
Previous

1 hour ago

KPSF 261354Z AUTO 26011KT 10SM BKN027 OVC035 22/16 A2992 RMK AO2 SLP110 T02170161
Observed
May-26 @ 13:54 UTC
Wind
  • 260° at 11 KTS
Visibility
10 SM
Flight Rules
MVFR
Cloud Levels
  • Broken at 2,700' AGL
  • Overcast at 3,500' AGL
Temperature
22°C / 72°F
Dewpoint
16°C / 61°F
Humidity
69%
Altimeter
29.92" Hg
Pressure
1013.22 hPa